createdAt,value
2024-04-19T00:02:26.000Z,99059.66
2024-04-19T00:05:27.495Z,99056.20
2024-04-19T00:08:29.194Z,99057.15
2024-04-19T00:11:30.729Z,99056.58
2024-04-19T00:14:32.201Z,99053.95
2024-04-19T00:17:33.642Z,99050.45
2024-04-19T00:20:35.095Z,99052.61
2024-04-19T00:23:37.243Z,99052.79
2024-04-19T00:26:38.765Z,99051.45
2024-04-19T00:29:40.293Z,99051.65
2024-04-19T00:32:41.829Z,99051.52
2024-04-19T00:35:44.096Z,99052.73
2024-04-19T00:38:45.556Z,99049.67
2024-04-19T00:41:47.022Z,99051.77
2024-04-19T00:44:48.483Z,99048.88
2024-04-19T00:47:50.056Z,99045.48
2024-04-19T00:50:53.815Z,99043.61
2024-04-19T00:53:55.617Z,99042.45
2024-04-19T00:56:57.222Z,99042.63
2024-04-19T00:59:58.816Z,99048.94
2024-04-19T01:03:00.312Z,99051.52
2024-04-19T01:06:02.210Z,99052.58
2024-04-19T01:09:04.607Z,99047.27
2024-04-19T01:12:07.117Z,99045.77
2024-04-19T01:15:24.320Z,99048.68
2024-04-19T01:18:25.929Z,99045.79
2024-04-19T01:21:27.506Z,99044.46
2024-04-19T01:24:49.675Z,99046.34
2024-04-19T01:27:51.157Z,99051.84
2024-04-19T01:30:52.661Z,99047.27
2024-04-19T01:33:54.114Z,99047.98
2024-04-19T01:36:55.722Z,99045.81
2024-04-19T01:39:57.055Z,99050.14
2024-04-19T01:42:58.661Z,99047.64
2024-04-19T01:46:00.242Z,99049.79
2024-04-19T01:49:01.824Z,99047.34
2024-04-19T01:52:03.278Z,99044.05
2024-04-19T01:55:05.059Z,99042.77
2024-04-19T01:58:06.582Z,99041.31
2024-04-19T02:01:08.430Z,99043.77
2024-04-19T02:04:10.052Z,99043.31
2024-04-19T02:07:11.465Z,99037.42
2024-04-19T02:10:12.997Z,99033.77
2024-04-19T02:13:14.425Z,99038.16
2024-04-19T02:16:15.797Z,99034.35
2024-04-19T02:19:17.253Z,99033.61
2024-04-19T02:22:18.742Z,99032.89
2024-04-19T02:25:20.472Z,99036.23
2024-04-19T02:28:22.028Z,99035.16
2024-04-19T02:31:23.418Z,99036.17
2024-04-19T02:34:24.903Z,99036.65
2024-04-19T02:37:26.278Z,99031.42
2024-04-19T02:40:27.750Z,99038.25
2024-04-19T02:43:29.432Z,99033.48
2024-04-19T02:46:30.914Z,99034.08
2024-04-19T02:49:32.292Z,99033.64
2024-04-19T02:52:33.680Z,99032.73
2024-04-19T02:55:35.082Z,99029.30
2024-04-19T02:58:36.601Z,99027.23
2024-04-19T03:01:37.963Z,99028.88
2024-04-19T03:04:39.626Z,99025.91
2024-04-19T03:07:41.227Z,99027.04
2024-04-19T03:10:42.659Z,99029.73
2024-04-19T03:13:44.019Z,99033.98
2024-04-19T03:16:45.396Z,99031.45
2024-04-19T03:19:46.742Z,99033.60
2024-04-19T03:22:48.194Z,99032.07
2024-04-19T03:25:49.542Z,99032.62
2024-04-19T03:28:51.016Z,99028.59
2024-04-19T03:31:52.381Z,99027.13
2024-04-19T03:34:54.198Z,99028.08
2024-04-19T03:37:55.578Z,99031.95
2024-04-19T03:40:57.272Z,99027.44
2024-04-19T03:43:58.547Z,99032.53
2024-04-19T03:46:59.933Z,99028.05
2024-04-19T03:50:01.397Z,99023.08
2024-04-19T03:53:03.971Z,99022.90
2024-04-19T03:56:05.499Z,99023.96
2024-04-19T03:59:06.871Z,99026.67
2024-04-19T04:02:29.242Z,99026.67
2024-04-19T04:05:51.996Z,99032.79
2024-04-19T04:09:12.453Z,99029.23
2024-04-19T04:12:32.983Z,99040.51
2024-04-19T04:15:53.553Z,99035.28
2024-04-19T04:19:14.687Z,99034.13
2024-04-19T04:22:35.832Z,99028.54
2024-04-19T04:25:56.374Z,99027.55
2024-04-19T04:29:16.847Z,99027.55
2024-04-19T04:32:37.274Z,99037.19
2024-04-19T04:36:00.710Z,99036.95
2024-04-19T04:39:21.575Z,99037.09
2024-04-19T04:42:41.830Z,99030.40
2024-04-19T04:46:02.564Z,99029.09
2024-04-19T04:49:22.910Z,99031.02
2024-04-19T04:52:43.447Z,99024.27
2024-04-19T04:56:04.260Z,99021.06
2024-04-19T04:59:24.549Z,99016.80
2024-04-19T05:02:45.047Z,99012.83
2024-04-19T05:06:05.686Z,99012.30
2024-04-19T05:09:25.978Z,99013.20
2024-04-19T05:12:46.133Z,99010.98
2024-04-19T05:16:06.977Z,99012.34
2024-04-19T05:19:27.537Z,99012.15
2024-04-19T05:22:48.415Z,99014.83
2024-04-19T05:26:08.794Z,99011.66
2024-04-19T05:29:29.478Z,99011.34
2024-04-19T05:32:49.743Z,99012.63
2024-04-19T05:35:51.223Z,99012.88
2024-04-19T05:38:52.577Z,99020.61
2024-04-19T05:41:53.963Z,99015.84
2024-04-19T05:44:55.377Z,99010.00
2024-04-19T05:47:57.016Z,99002.55
2024-04-19T05:50:59.769Z,99004.89
2024-04-19T05:54:01.327Z,98999.05
2024-04-19T05:57:02.923Z,98997.70
2024-04-19T06:00:04.535Z,99003.23
2024-04-19T06:03:06.009Z,99003.20
2024-04-19T06:06:07.438Z,99002.16
2024-04-19T06:09:08.845Z,99005.52
2024-04-19T06:12:10.282Z,99003.80
2024-04-19T06:15:11.981Z,99002.31
2024-04-19T06:18:13.436Z,98992.04
2024-04-19T06:21:14.860Z,98995.44
2024-04-19T06:24:16.977Z,98992.39
2024-04-19T06:27:18.484Z,98993.61
2024-04-19T06:30:19.778Z,98991.19
2024-04-19T06:33:21.333Z,98986.73
2024-04-19T06:36:22.745Z,98973.46
2024-04-19T06:39:24.819Z,98979.09
2024-04-19T06:42:26.410Z,98983.18
2024-04-19T06:45:27.756Z,98985.48
2024-04-19T06:48:29.254Z,98982.14
2024-04-19T06:51:30.986Z,98984.39
2024-04-19T06:54:33.014Z,98978.40
2024-04-19T06:57:34.659Z,98981.05
2024-04-19T07:00:47.874Z,98981.41
2024-04-19T07:04:00.960Z,98977.44
2024-04-19T07:07:02.526Z,98973.53
2024-04-19T07:10:04.813Z,98968.61
2024-04-19T07:13:06.677Z,98959.42
2024-04-19T07:16:08.171Z,98952.80
2024-04-19T07:19:09.634Z,98953.52
2024-04-19T07:22:11.010Z,98950.56
2024-04-19T07:25:12.382Z,98950.47
2024-04-19T07:28:13.876Z,98951.44
2024-04-19T07:31:15.385Z,98948.60
2024-04-19T07:34:16.797Z,98942.13
2024-04-19T07:37:18.155Z,98942.17
2024-04-19T07:40:19.727Z,98939.10
2024-04-19T07:43:21.716Z,98937.27
2024-04-19T07:46:23.228Z,98931.23
2024-04-19T07:49:26.556Z,98929.66
2024-04-19T07:52:28.070Z,98932.77
2024-04-19T07:55:29.507Z,98922.23
2024-04-19T07:58:30.957Z,98919.91
2024-04-19T08:01:32.352Z,98916.21
2024-04-19T08:04:34.008Z,98912.14
2024-04-19T08:07:40.166Z,98909.01
2024-04-19T08:10:42.778Z,98905.43
2024-04-19T08:13:44.524Z,98905.00
2024-04-19T08:16:46.077Z,98901.84
2024-04-19T08:19:48.147Z,98900.45
2024-04-19T08:22:49.605Z,98890.05
2024-04-19T08:25:51.032Z,98892.27
2024-04-19T08:28:52.596Z,98886.80
2024-04-19T08:31:56.543Z,98883.52
2024-04-19T08:34:58.140Z,98887.21
2024-04-19T08:37:59.525Z,98883.75
2024-04-19T08:41:04.469Z,98879.69
2024-04-19T08:44:08.899Z,98878.70
2024-04-19T08:47:11.423Z,98876.70
2024-04-19T08:50:15.313Z,98874.66
2024-04-19T08:53:19.102Z,98871.45
2024-04-19T08:56:21.376Z,98864.86
2024-04-19T08:59:22.932Z,98867.75
2024-04-19T09:02:24.451Z,98864.71
2024-04-19T09:05:25.932Z,98860.50
2024-04-19T09:08:27.402Z,98862.95
2024-04-19T09:11:28.903Z,98861.56
2024-04-19T09:14:30.568Z,98863.80
2024-04-19T09:17:32.234Z,98863.77
2024-04-19T09:20:33.768Z,98863.50
2024-04-19T09:23:35.144Z,98858.11
2024-04-19T09:26:36.598Z,98857.58
2024-04-19T09:29:38.026Z,98851.49
2024-04-19T09:32:39.700Z,98839.16
2024-04-19T09:35:41.207Z,98833.29
2024-04-19T09:38:43.249Z,98833.45
2024-04-19T09:41:48.759Z,98829.84
2024-04-19T09:44:53.590Z,98829.23
2024-04-19T09:47:55.878Z,98827.24
2024-04-19T09:50:58.705Z,98817.43
2024-04-19T09:54:04.831Z,98811.41
2024-04-19T09:57:06.403Z,98808.04
2024-04-19T10:00:09.376Z,98808.81
2024-04-19T10:03:12.526Z,98805.88
2024-04-19T10:06:14.393Z,98793.73
2024-04-19T10:09:24.646Z,98792.05
2024-04-19T10:12:26.199Z,98788.05
2024-04-19T10:15:27.768Z,98793.05
2024-04-19T10:18:29.263Z,98792.26
2024-04-19T10:21:34.131Z,98788.58
2024-04-19T10:24:35.499Z,98780.38
2024-04-19T10:27:38.552Z,98768.27
2024-04-19T10:30:40.001Z,98771.29
2024-04-19T10:33:43.010Z,98761.27
2024-04-19T10:36:45.930Z,98759.98
2024-04-19T10:39:47.849Z,98753.25
2024-04-19T10:42:49.326Z,98747.90
2024-04-19T10:45:51.029Z,98747.52
2024-04-19T10:48:53.763Z,98740.58
2024-04-19T10:51:55.435Z,98728.49
2024-04-19T10:54:58.542Z,98724.58
2024-04-19T10:58:00.074Z,98716.67
2024-04-19T11:01:02.114Z,98711.25
2024-04-19T11:04:03.731Z,98715.30
2024-04-19T11:07:05.200Z,98707.34
2024-04-19T11:10:07.212Z,98706.51
2024-04-19T11:13:09.839Z,98700.29
2024-04-19T11:16:11.476Z,98696.36
2024-04-19T11:19:13.112Z,98689.20
2024-04-19T11:22:15.950Z,98686.69
2024-04-19T11:25:17.561Z,98683.98
2024-04-19T11:28:19.716Z,98680.13
2024-04-19T11:31:21.344Z,98677.91
2024-04-19T11:34:28.068Z,98669.79
2024-04-19T11:37:29.482Z,98666.56
2024-04-19T11:40:31.178Z,98662.44
2024-04-19T11:43:32.703Z,98655.66
2024-04-19T11:46:34.532Z,98655.58
2024-04-19T11:49:36.055Z,98648.59
2024-04-19T11:52:39.677Z,98640.20
2024-04-19T11:55:41.583Z,98638.89
2024-04-19T11:58:44.408Z,98640.77
2024-04-19T12:01:46.651Z,98632.35
2024-04-19T12:04:48.268Z,98630.86
2024-04-19T12:07:50.072Z,98622.44
2024-04-19T12:10:51.634Z,98626.46
2024-04-19T12:14:39.237Z,98622.02
2024-04-19T12:17:20.004Z,98614.50
2024-04-19T12:20:35.577Z,98602.02
2024-04-19T12:23:44.364Z,98593.33
2024-04-19T12:26:46.070Z,98595.98
2024-04-19T12:29:47.734Z,98588.92
2024-04-19T12:32:49.272Z,98591.16
2024-04-19T12:35:50.971Z,98584.46
2024-04-19T12:38:52.464Z,98585.53
2024-04-19T12:41:54.680Z,98573.67
2024-04-19T12:44:56.047Z,98574.10
2024-04-19T12:48:05.584Z,98573.66
2024-04-19T12:51:07.340Z,98578.46
2024-04-19T12:54:08.914Z,98573.59
2024-04-19T12:57:10.393Z,98572.19
2024-04-19T13:00:12.481Z,98562.70
2024-04-19T13:03:13.942Z,98566.23
2024-04-19T13:06:15.426Z,98571.61
2024-04-19T13:09:16.801Z,98569.95
2024-04-19T13:12:18.292Z,98555.41
2024-04-19T13:15:19.789Z,98558.68
2024-04-19T13:18:21.409Z,98554.67
2024-04-19T13:21:22.854Z,98552.80
2024-04-19T13:24:24.262Z,98550.52
2024-04-19T13:27:25.718Z,98553.93
2024-04-19T13:30:28.055Z,98562.74
2024-04-19T13:33:29.474Z,98568.41
2024-04-19T13:36:30.925Z,98557.27
2024-04-19T13:39:32.563Z,98548.39
2024-04-19T13:42:34.041Z,98542.71
2024-04-19T13:45:35.676Z,98541.02
2024-04-19T13:48:37.307Z,98537.55
2024-04-19T13:51:39.036Z,98534.55
2024-04-19T13:54:40.517Z,98529.10
2024-04-19T13:57:42.038Z,98534.33
2024-04-19T14:00:43.727Z,98537.03
2024-04-19T14:03:45.749Z,98534.83
2024-04-19T14:06:47.323Z,98536.51
2024-04-19T14:09:48.752Z,98530.70
2024-04-19T14:12:50.971Z,98524.40
2024-04-19T14:15:52.406Z,98522.22
2024-04-19T14:18:55.231Z,98513.31
2024-04-19T14:21:56.954Z,98507.38
2024-04-19T14:24:58.428Z,98503.58
2024-04-19T14:27:59.901Z,98496.77
2024-04-19T14:31:01.507Z,98497.63
2024-04-19T14:34:02.975Z,98491.58
2024-04-19T14:37:04.745Z,98492.10
2024-04-19T14:40:06.873Z,98485.58
2024-04-19T14:43:08.395Z,98478.84
2024-04-19T14:46:09.855Z,98474.92
2024-04-19T14:49:11.463Z,98469.33
2024-04-19T14:52:13.533Z,98464.52
2024-04-19T14:55:15.208Z,98458.95
2024-04-19T14:58:16.581Z,98456.06
2024-04-19T15:01:18.250Z,98455.07
2024-04-19T15:04:19.903Z,98441.09
2024-04-19T15:07:21.545Z,98447.48
2024-04-19T15:10:22.903Z,98447.88
2024-04-19T15:13:24.306Z,98444.50
2024-04-19T15:16:25.706Z,98439.67
2024-04-19T15:19:27.222Z,98439.09
2024-04-19T15:22:28.625Z,98435.69
2024-04-19T15:25:31.533Z,98430.96
2024-04-19T15:28:34.946Z,98433.27
2024-04-19T15:31:37.494Z,98431.85
2024-04-19T15:34:47.120Z,98425.30
2024-04-19T15:37:50.192Z,98424.52
2024-04-19T15:40:51.568Z,98426.96
2024-04-19T15:43:52.970Z,98425.83
2024-04-19T15:46:54.407Z,98418.59
2024-04-19T15:49:55.815Z,98413.88
2024-04-19T15:52:57.226Z,98413.48
2024-04-19T15:55:58.758Z,98411.82
2024-04-19T15:59:00.123Z,98412.00
2024-04-19T16:02:01.573Z,98409.75
2024-04-19T16:05:02.998Z,98408.44
2024-04-19T16:08:04.582Z,98404.98
2024-04-19T16:11:06.277Z,98399.27
2024-04-19T16:14:07.897Z,98403.49
2024-04-19T16:17:09.242Z,98399.75
2024-04-19T16:20:11.743Z,98398.81
2024-04-19T16:23:14.519Z,98396.89
2024-04-19T16:26:15.967Z,98393.13
2024-04-19T16:29:17.989Z,98388.69
2024-04-19T16:32:19.427Z,98390.57
2024-04-19T16:35:20.807Z,98388.37
2024-04-19T16:38:22.268Z,98384.69
2024-04-19T16:41:23.606Z,98384.15
2024-04-19T16:44:24.937Z,98385.55
2024-04-19T16:47:26.700Z,98381.41
2024-04-19T16:50:28.746Z,98379.38
2024-04-19T16:53:30.153Z,98377.55
2024-04-19T16:56:31.467Z,98379.92
2024-04-19T16:59:32.800Z,98379.17
2024-04-19T17:02:34.540Z,98374.30
2024-04-19T17:05:36.717Z,98378.05
2024-04-19T17:08:38.481Z,98377.70
2024-04-19T17:11:39.880Z,98379.60
2024-04-19T17:14:43.299Z,98384.52
2024-04-19T17:17:48.894Z,98382.65
2024-04-19T17:20:50.308Z,98387.60
2024-04-19T17:23:51.620Z,98386.89
2024-04-19T17:26:53.039Z,98384.20
2024-04-19T17:29:54.453Z,98390.54
2024-04-19T17:32:55.854Z,98398.02
2024-04-19T17:35:57.272Z,98394.66
2024-04-19T17:38:58.657Z,98391.44
2024-04-19T17:41:59.971Z,98392.98
2024-04-19T17:45:01.534Z,98401.16
2024-04-19T17:48:03.136Z,98400.06
2024-04-19T17:51:04.942Z,98399.02
2024-04-19T17:54:06.379Z,98400.60
2024-04-19T17:57:07.782Z,98399.16
2024-04-19T18:00:09.435Z,98403.45
2024-04-19T18:03:10.890Z,98414.83
2024-04-19T18:06:12.367Z,98415.16
2024-04-19T18:09:13.991Z,98413.59
2024-04-19T18:12:15.390Z,98416.42
2024-04-19T18:15:16.801Z,98423.23
2024-04-19T18:18:18.246Z,98422.77
2024-04-19T18:21:19.677Z,98421.23
2024-04-19T18:24:21.287Z,98426.49
2024-04-19T18:27:22.857Z,98423.39
2024-04-19T18:30:24.227Z,98425.73
2024-04-19T18:33:26.475Z,98425.70
2024-04-19T18:36:28.014Z,98428.52
2024-04-19T18:39:29.382Z,98423.95
2024-04-19T18:42:30.929Z,98422.21
2024-04-19T18:45:32.380Z,98418.61
2024-04-19T18:48:33.956Z,98417.42
2024-04-19T18:51:35.350Z,98422.48
2024-04-19T18:54:36.948Z,98425.00
2024-04-19T18:57:38.457Z,98419.58
2024-04-19T19:00:39.854Z,98422.24
2024-04-19T19:03:42.007Z,98420.78
2024-04-19T19:06:43.471Z,98416.23
2024-04-19T19:09:45.493Z,98415.73
2024-04-19T19:12:46.909Z,98411.62
2024-04-19T19:15:58.477Z,98407.92
2024-04-19T19:19:00.271Z,98403.64
2024-04-19T19:22:01.689Z,98402.84
2024-04-19T19:25:03.273Z,98405.45
2024-04-19T19:28:04.854Z,98404.45
2024-04-19T19:31:06.408Z,98402.21
2024-04-19T19:34:07.867Z,98400.35
2024-04-19T19:37:09.403Z,98397.48
2024-04-19T19:40:10.988Z,98394.98
2024-04-19T19:43:14.462Z,98391.61
2024-04-19T19:46:16.082Z,98387.22
2024-04-19T19:49:23.336Z,98385.71
2024-04-19T19:52:24.777Z,98384.75
2024-04-19T19:55:26.203Z,98382.46
2024-04-19T19:58:27.629Z,98383.21
2024-04-19T20:01:29.326Z,98385.18
2024-04-19T20:04:30.846Z,98384.31
2024-04-19T20:07:32.349Z,98385.66
2024-04-19T20:10:33.705Z,98385.20
2024-04-19T20:13:35.441Z,98379.34
2024-04-19T20:16:36.804Z,98377.64
2024-04-19T20:19:38.281Z,98372.45
2024-04-19T20:22:39.725Z,98371.52
2024-04-19T20:25:42.663Z,98370.09
2024-04-19T20:28:44.078Z,98369.19
2024-04-19T20:31:45.497Z,98366.81
2024-04-19T20:34:46.867Z,98369.61
2024-04-19T20:37:48.387Z,98372.96
2024-04-19T20:40:49.757Z,98372.08
2024-04-19T20:43:51.292Z,98370.08
2024-04-19T20:46:52.625Z,98369.00
2024-04-19T20:49:54.029Z,98374.56
2024-04-19T20:52:55.346Z,98377.05
2024-04-19T20:55:56.717Z,98383.17
2024-04-19T20:58:58.199Z,98381.66
2024-04-19T21:01:59.683Z,98383.05
2024-04-19T21:05:01.109Z,98380.44
2024-04-19T21:08:02.451Z,98378.60
2024-04-19T21:11:04.196Z,98377.56
2024-04-19T21:14:07.930Z,98375.65
2024-04-19T21:17:10.565Z,98368.42
2024-04-19T21:20:11.914Z,98374.09
2024-04-19T21:23:13.586Z,98377.92
2024-04-19T21:26:15.124Z,98372.98
2024-04-19T21:29:16.557Z,98362.98
2024-04-19T21:32:17.948Z,98360.59
2024-04-19T21:35:19.488Z,98360.63
2024-04-19T21:38:20.799Z,98358.98
2024-04-19T21:41:22.276Z,98364.19
2024-04-19T21:44:23.618Z,98363.98
2024-04-19T21:47:25.039Z,98363.16
2024-04-19T21:50:26.429Z,98359.41
2024-04-19T21:53:27.967Z,98361.45
2024-04-19T21:56:29.456Z,98363.17
2024-04-19T21:59:30.883Z,98368.11
2024-04-19T22:02:32.277Z,98367.06
2024-04-19T22:05:33.759Z,98369.35
2024-04-19T22:08:35.138Z,98365.77
2024-04-19T22:11:36.488Z,98369.42
2024-04-19T22:14:38.069Z,98370.19
2024-04-19T22:17:39.354Z,98365.27
2024-04-19T22:20:40.825Z,98365.10
2024-04-19T22:23:42.728Z,98358.90
2024-04-19T22:26:44.353Z,98359.66
2024-04-19T22:29:46.068Z,98354.90
2024-04-19T22:32:47.555Z,98354.43
2024-04-19T22:35:48.865Z,98351.16
2024-04-19T22:38:50.325Z,98347.73
2024-04-19T22:41:51.769Z,98344.24
2024-04-19T22:44:53.203Z,98344.20
2024-04-19T22:47:54.557Z,98345.02
2024-04-19T22:50:55.993Z,98345.46
2024-04-19T22:53:57.348Z,98344.18
2024-04-19T22:56:58.860Z,98340.14
2024-04-19T23:00:00.204Z,98343.90
2024-04-19T23:03:01.868Z,98341.35
2024-04-19T23:06:04.214Z,98334.98
2024-04-19T23:09:08.556Z,98332.27
2024-04-19T23:12:10.973Z,98335.21
2024-04-19T23:15:12.683Z,98332.92
2024-04-19T23:18:14.256Z,98336.66
2024-04-19T23:21:15.669Z,98333.52
2024-04-19T23:24:17.031Z,98335.19
2024-04-19T23:27:18.476Z,98329.64
2024-04-19T23:30:19.962Z,98329.10
2024-04-19T23:33:21.989Z,98330.36
2024-04-19T23:36:23.455Z,98324.28
2024-04-19T23:39:24.897Z,98322.08
2024-04-19T23:42:28.527Z,98323.71
2024-04-19T23:45:31.769Z,98325.16
2024-04-19T23:48:33.367Z,98321.25
2024-04-19T23:51:34.824Z,98317.36
2024-04-19T23:54:36.263Z,98312.22
2024-04-19T23:57:37.632Z,98310.54
